Terminal Aerodrome Forecast
Issued by NWS

Home | Current Version | Previous Version | Text Only | Print | Product List | Glossary On
Versions: 1 2 3 4 5 6 7 8 9 10 11 12 13 14 15 16 17 18 19 20 21 22 23 24 25 26 27 28 29 30
000
FTUS43 KFGF 271720
TAFTVF
TAF
KTVF 271720Z 2718/2818 19017G24KT P6SM BKN250
     FM280200 14011KT P6SM BKN040
     FM280800 14008KT P6SM VCTS OVC020CB
     FM280900 14008KT P6SM -TSRA OVC015CB
     FM281100 13009KT P6SM VCSH OVC010
     FM281300 14009KT P6SM VCSH OVC008
     FM281700 21007KT P6SM OVC008=

USA.gov is the U.S. government's official web portal to all federal, state and local government web resources and services.